Погода Иньюмасна 2 недели

Гояс, Бразилия

24 июля-05 августа
  • 24июля
    Сегодня
    +13°
    +30°
    Ясно и безоблачно
    ВремяПогодаТемператураВлажностьДавлениеВетер, м/сВероятность осадков
    00:00Ясно и безоблачно+19°C38 %693 мм2.9 м/с5 %
    03:00Ясно и безоблачно+17°C47 %692 мм3.4 м/с5 %
    06:00Небольшая облачность+16°C51 %691 мм2.2 м/с5 %
    09:00Ясно и безоблачно+22°C36 %694 мм3.4 м/с5 %
    12:00Ясно и безоблачно+27°C23 %695 мм3.5 м/с5 %
    15:00Ясно и безоблачно+29°C21 %693 мм1.6 м/с5 %
    18:00Ясно и безоблачно+27°C27 %692 мм1.2 м/с5 %
    21:00Ясно и безоблачно+21°C38 %692 мм1.7 м/с5 %
  • 25июля
    Четверг
    +14°
    +30°
    Ясно и безоблачно
    ВремяПогодаТемператураВлажностьДавлениеВетер, м/сВероятность осадков
    00:00Ясно и безоблачно+18°C45 %693 мм2.2 м/с5 %
    03:00Ясно и безоблачно+16°C50 %691 мм2.3 м/с5 %
    06:00Ясно и безоблачно+14°C57 %691 мм2.0 м/с5 %
    09:00Ясно и безоблачно+21°C37 %694 мм1.8 м/с5 %
    12:00Ясно и безоблачно+28°C24 %694 мм0.1 м/с5 %
    15:00Ясно и безоблачно+30°C21 %692 мм1.5 м/с5 %
    18:00Ясно и безоблачно+26°C27 %691 мм2.1 м/с5 %
    21:00Ясно и безоблачно+21°C34 %691 мм2.0 м/с5 %
  • 26июля
    Пятница
    +14°
    +30°
    Ясно и безоблачно
    ВремяПогодаТемператураВлажностьДавлениеВетер, м/сВероятность осадков
    00:00Ясно и безоблачно+18°C42 %691 мм2.2 м/с5 %
    03:00Ясно и безоблачно+15°C48 %689 мм2.3 м/с5 %
    06:00Ясно и безоблачно+15°C53 %690 мм2.4 м/с5 %
    09:00Ясно и безоблачно+21°C36 %692 мм2.3 м/с5 %
    12:00Ясно и безоблачно+28°C23 %693 мм2.2 м/с5 %
    15:00Ясно и безоблачно+30°C21 %691 мм0.7 м/с5 %
    18:00Ясно и безоблачно+27°C27 %690 мм1.0 м/с5 %
    21:00Ясно и безоблачно+22°C33 %691 мм1.2 м/с5 %
  • 27июля
    Суббота
    +15°
    +31°
    Ясно и безоблачно
    ВремяПогодаТемператураВлажностьДавлениеВетер, м/сВероятность осадков
    00:00Ясно и безоблачно+18°C40 %690 мм2.0 м/с5 %
    03:00Ясно и безоблачно+15°C44 %689 мм2.1 м/с5 %
    06:00Ясно и безоблачно+15°C49 %689 мм2.3 м/с5 %
    09:00Ясно и безоблачно+23°C37 %693 мм2.9 м/с5 %
    12:00Ясно и безоблачно+28°C24 %693 мм2.5 м/с5 %
    15:00Ясно и безоблачно+30°C22 %691 мм1.8 м/с5 %
    18:00Ясно и безоблачно+26°C30 %691 мм1.8 м/с5 %
    21:00Ясно и безоблачно+21°C39 %691 мм1.9 м/с5 %
Мы используем cookies
Соглашаюсь